Time;durP1;ratioP1;P1;durP2;ratioP2;P2;SDS_P1;SDS_P2;PMS_P1;PMS_P2;Temp;Humidity;BMP_temperature;BMP_pressure;BME280_temperature;BME280_humidity;BME280_pressure;Samples;Min_cycle;Max_cycle;Signal;HPM_P1;HPM_P2
2022/03/18 00:00:54;;;;;;;49.73;35.83;;;;;;;5.49;100.00;97714.09;5037317;28;20093;-90
2022/03/18 00:03:27;;;;;;;60.37;36.63;;;;;;;5.46;100.00;97724.72;5054634;28;20035;-90
2022/03/18 00:05:53;;;;;;;48.73;35.67;;;;;;;5.44;100.00;97716.97;5040159;28;20025;-90
2022/03/18 00:08:19;;;;;;;49.80;35.70;;;;;;;5.56;100.00;97720.63;5039989;28;20910;-90
2022/03/18 00:10:45;;;;;;;52.07;34.87;;;;;;;5.59;100.00;97725.66;5048846;28;21016;-90
2022/03/18 00:13:27;;;;;;;47.53;33.63;;;;;;;5.47;100.00;97721.19;5039913;28;20025;-90
2022/03/18 00:15:54;;;;;;;49.60;34.57;;;;;;;5.44;100.00;97728.25;5036415;28;20028;-90
2022/03/18 00:18:20;;;;;;;50.40;34.20;;;;;;;5.46;100.00;97728.16;5038920;28;20029;-89
2022/03/18 00:20:48;;;;;;;46.87;33.07;;;;;;;5.46;100.00;97722.09;5053563;28;20032;-89
2022/03/18 00:23:13;;;;;;;48.53;35.10;;;;;;;5.43;100.00;97726.59;5028726;28;20020;-90
2022/03/18 00:25:39;;;;;;;50.13;34.83;;;;;;;5.40;100.00;97731.97;5044106;28;20039;-90
2022/03/18 00:28:05;;;;;;;47.03;33.07;;;;;;;5.44;100.00;97733.47;5036371;28;20372;-90
2022/03/18 00:30:32;;;;;;;48.33;33.57;;;;;;;5.46;100.00;97741.19;5054672;28;20030;-90
2022/03/18 00:32:57;;;;;;;50.90;34.67;;;;;;;5.43;100.00;97731.81;5037674;28;20399;-90
2022/03/18 00:35:24;;;;;;;46.23;32.60;;;;;;;5.53;100.00;97728.63;5019413;28;20033;-90
2022/03/18 00:37:49;;;;;;;52.00;36.03;;;;;;;5.47;100.00;97726.41;5050814;28;20025;-90
2022/03/18 00:40:15;;;;;;;48.97;34.47;;;;;;;5.54;100.00;97730.31;5023817;28;20039;-90
2022/03/18 00:42:41;;;;;;;45.53;32.77;;;;;;;5.45;100.00;97736.91;5039549;28;20152;-90
2022/03/18 00:45:07;;;;;;;47.83;33.40;;;;;;;5.40;100.00;97738.97;5044281;28;20087;-89
2022/03/18 00:53:18;;;;;;;48.83;33.03;;;;;;;5.44;100.00;97738.69;5052025;28;20138;-89
2022/03/18 00:55:44;;;;;;;44.90;31.77;;;;;;;5.47;100.00;97742.06;5027389;28;20515;-90
2022/03/18 00:58:10;;;;;;;48.60;32.50;;;;;;;5.51;100.00;97738.34;5035921;28;20074;-89
2022/03/18 01:00:36;;;;;;;44.97;32.03;;;;;;;5.49;100.00;97740.19;5034661;28;20395;-90
2022/03/18 01:03:02;;;;;;;45.10;33.13;;;;;;;5.47;100.00;97747.28;5016165;28;20076;-90
2022/03/18 01:05:27;;;;;;;47.20;32.53;;;;;;;5.53;100.00;97741.66;5033722;28;20033;-90
2022/03/18 01:07:53;;;;;;;44.87;31.23;;;;;;;5.51;100.00;97736.56;5035812;28;20084;-90
2022/03/18 01:10:29;;;;;;;48.53;34.40;;;;;;;5.44;100.00;97743.06;5019534;28;20041;-90
2022/03/18 01:12:55;;;;;;;46.67;32.67;;;;;;;5.44;100.00;97740.47;5028859;28;20044;-90
2022/03/18 01:15:34;;;;;;;46.93;32.60;;;;;;;5.49;100.00;97734.97;5030247;28;20029;-90
2022/03/18 01:18:00;;;;;;;44.87;32.60;;;;;;;5.51;100.00;97735.72;5012900;28;20094;-90
2022/03/18 01:20:25;;;;;;;46.57;31.37;;;;;;;5.47;100.00;97737.69;5041326;28;20127;-90
2022/03/18 01:22:51;;;;;;;49.47;33.90;;;;;;;5.46;100.00;97741.19;5040968;28;20024;-89
2022/03/18 01:25:17;;;;;;;48.30;34.07;;;;;;;5.43;100.00;97736.16;5039893;28;20020;-89
2022/03/18 01:27:43;;;;;;;47.70;33.87;;;;;;;5.40;100.00;97731.97;5049369;28;20044;-90
2022/03/18 01:30:10;;;;;;;51.53;35.30;;;;;;;5.37;100.00;97729.56;5035139;28;20040;-90
2022/03/18 01:32:36;;;;;;;51.40;34.83;;;;;;;5.40;100.00;97733.75;5035702;28;20844;-89
2022/03/18 01:35:01;;;;;;;51.77;34.93;;;;;;;5.39;100.00;97743.31;5032770;28;20142;-90
2022/03/18 01:37:27;;;;;;;52.43;35.53;;;;;;;5.45;100.00;97736.91;5054224;28;20044;-90
2022/03/18 01:39:55;;;;;;;51.90;35.43;;;;;;;5.44;100.00;97740.47;5020166;28;20074;-90
2022/03/18 01:42:21;;;;;;;51.03;34.87;;;;;;;5.42;100.00;97750.97;5044579;28;20032;-90
2022/03/18 01:44:47;;;;;;;49.87;35.07;;;;;;;5.41;100.00;97746.69;5027718;28;20013;-90
2022/03/18 01:47:13;;;;;;;48.17;33.47;;;;;;;5.43;100.00;97744.84;5035695;28;20124;-89
2022/03/18 01:49:39;;;;;;;48.70;33.77;;;;;;;5.33;100.00;97746.31;5045346;28;20082;-89
2022/03/18 01:52:10;;;;;;;50.23;34.80;;;;;;;5.39;100.00;97745.09;5023567;28;20033;-89
2022/03/18 01:54:47;;;;;;;48.13;34.13;;;;;;;5.42;100.00;97743.16;5037499;28;20086;-89
2022/03/18 01:57:17;;;;;;;50.67;34.97;;;;;;;5.44;100.00;97737.84;5039530;28;20548;-88
2022/03/18 01:59:56;;;;;;;54.00;35.80;;;;;;;5.42;100.00;97739.72;5038734;28;20090;-89
2022/03/18 02:02:22;;;;;;;54.77;37.03;;;;;;;5.36;100.00;97738.28;5037521;28;20040;-89
2022/03/18 02:04:57;;;;;;;53.77;37.80;;;;;;;5.47;100.00;97747.28;5020045;28;20025;-89
2022/03/18 02:07:23;;;;;;;54.03;38.30;;;;;;;5.38;100.00;97744.25;5037100;28;20063;-89
2022/03/18 02:09:49;;;;;;;51.30;36.27;;;;;;;5.48;100.00;97754.16;5031178;28;20047;-89
2022/03/18 02:12:16;;;;;;;54.13;40.43;;;;;;;5.42;100.00;97744.91;5051273;28;20092;-89
2022/03/18 02:14:44;;;;;;;54.00;37.63;;;;;;;5.46;100.00;97751.63;5026049;28;20029;-88
2022/03/18 02:17:12;;;;;;;54.50;39.10;;;;;;;5.39;100.00;97751.16;5031592;28;20450;-89
2022/03/18 02:19:40;;;;;;;53.00;37.83;;;;;;;5.42;100.00;97761.41;5040061;28;20368;-88
2022/03/18 02:22:23;;;;;;;50.67;36.80;;;;;;;5.42;100.00;97765.78;5040661;28;20036;-88
2022/03/18 02:24:51;;;;;;;56.80;37.85;;;;;;;5.36;100.00;97761.75;5047890;28;20037;-88
2022/03/18 02:27:19;;;;;;;54.50;38.13;;;;;;;5.38;100.00;97765.13;5030031;28;20463;-88
2022/03/18 02:29:45;;;;;;;56.17;37.93;;;;;;;5.39;100.00;97764.19;5029456;28;20039;-88
2022/03/18 02:32:16;;;;;;;55.83;37.50;;;;;;;5.52;100.00;97766.94;5030199;28;20032;-87
2022/03/18 02:34:42;;;;;;;57.13;38.90;;;;;;;5.41;100.00;97764.97;5031178;28;20037;-87
2022/03/18 02:37:08;;;;;;;60.60;40.40;;;;;;;5.41;100.00;97761.50;5053731;28;20031;-87
2022/03/18 02:39:34;;;;;;;54.33;37.53;;;;;;;5.44;100.00;97763.94;5033822;28;20488;-87
2022/03/18 02:42:00;;;;;;;59.63;39.37;;;;;;;5.36;100.00;97766.97;5036401;28;20036;-87
2022/03/18 02:44:26;;;;;;;57.60;39.40;;;;;;;5.36;100.00;97764.38;5038733;28;20020;-86
2022/03/18 02:46:52;;;;;;;63.27;41.33;;;;;;;5.45;100.00;97760.41;5034319;28;20128;-87
2022/03/18 02:49:28;;;;;;;56.33;39.00;;;;;;;5.34;100.00;97768.03;5039394;28;20107;-87
2022/03/18 02:51:53;;;;;;;61.80;40.37;;;;;;;5.33;100.00;97772.41;5035288;28;20032;-87
2022/03/18 02:54:19;;;;;;;64.23;41.70;;;;;;;5.39;100.00;97769.41;5036471;28;20082;-87
2022/03/18 02:56:49;;;;;;;60.47;41.57;;;;;;;5.40;100.00;97781.56;5051963;28;20037;-87
2022/03/18 02:59:28;;;;;;;59.77;40.37;;;;;;;5.33;100.00;97776.75;5066795;28;20060;-88
2022/03/18 03:01:55;;;;;;;60.50;41.03;;;;;;;5.40;100.00;97776.34;5059989;28;20032;-87
2022/03/18 03:04:24;;;;;;;66.13;43.70;;;;;;;5.34;100.00;97774.06;5075267;28;20052;-87
2022/03/18 03:09:49;;;;;;;61.17;40.50;;;;;;;5.36;100.00;97784.41;5072722;28;20038;-87
2022/03/18 03:12:18;;;;;;;63.23;43.23;;;;;;;5.28;100.00;97789.25;5071495;28;20036;-86
2022/03/18 03:14:45;;;;;;;66.77;43.07;;;;;;;5.26;100.00;97781.47;5047467;28;20040;-87
2022/03/18 03:17:12;;;;;;;61.87;41.77;;;;;;;5.32;100.00;97790.75;5038361;28;20024;-86
2022/03/18 03:19:38;;;;;;;64.47;43.10;;;;;;;5.29;100.00;97794.34;5044566;28;20022;-87
2022/03/18 03:22:05;;;;;;;69.80;45.93;;;;;;;5.27;100.00;97803.22;5051766;28;20067;-87
2022/03/18 03:24:35;;;;;;;74.47;48.37;;;;;;;5.24;100.00;97808.59;5042586;28;20436;-87
2022/03/18 03:27:01;;;;;;;70.37;44.70;;;;;;;5.22;100.00;97805.22;5038233;28;20033;-87
2022/03/18 03:29:30;;;;;;;72.47;46.20;;;;;;;5.20;100.00;97807.94;5054504;28;20044;-87
2022/03/18 03:31:58;;;;;;;68.10;44.70;;;;;;;5.22;100.00;97815.66;5031556;28;20041;-87
2022/03/18 03:34:32;;;;;;;70.63;44.50;;;;;;;5.24;100.00;97814.66;5037948;28;20097;-87
2022/03/18 03:36:59;;;;;;;64.63;43.17;;;;;;;5.29;100.00;97812.63;5054375;28;20041;-87
2022/03/18 03:39:25;;;;;;;69.67;45.37;;;;;;;5.24;100.00;97816.44;5030691;28;20037;-87
2022/03/18 03:41:50;;;;;;;69.90;43.87;;;;;;;5.27;100.00;97813.66;5037697;28;20553;-86
2022/03/18 03:44:16;;;;;;;75.47;46.70;;;;;;;5.25;100.00;97808.50;5057720;28;20478;-87
2022/03/18 03:46:52;;;;;;;70.23;44.73;;;;;;;5.18;100.00;97804.56;5062869;28;20049;-87
2022/03/18 03:49:18;;;;;;;72.63;47.20;;;;;;;5.21;100.00;97809.63;5037568;28;20064;-87
2022/03/18 03:51:44;;;;;;;74.67;46.23;;;;;;;5.26;100.00;97812.78;5048747;28;20063;-87
2022/03/18 03:54:10;;;;;;;76.87;46.13;;;;;;;5.20;100.00;97818.38;5043479;28;20033;-87
2022/03/18 03:56:37;;;;;;;69.77;44.30;;;;;;;5.22;100.00;97818.28;5031378;28;20033;-86
2022/03/18 03:59:03;;;;;;;70.00;42.87;;;;;;;5.21;100.00;97820.03;5053580;28;20113;-87
2022/03/18 04:01:29;;;;;;;68.73;42.40;;;;;;;5.17;100.00;97823.75;5036228;28;20091;-87
2022/03/18 04:03:58;;;;;;;65.50;41.87;;;;;;;5.15;100.00;97818.63;5026835;28;20049;-87
2022/03/18 04:06:44;;;;;;;68.10;41.70;;;;;;;5.15;100.00;97825.59;5050632;28;20407;-87
2022/03/18 04:09:10;;;;;;;73.27;44.43;;;;;;;5.09;100.00;97831.16;5050967;28;20067;-86
2022/03/18 04:11:38;;;;;;;73.40;44.03;;;;;;;5.10;100.00;97832.88;5055757;28;20013;-87
2022/03/18 04:14:04;;;;;;;70.30;44.03;;;;;;;5.12;100.00;97836.22;5024545;28;20033;-86
2022/03/18 04:16:30;;;;;;;71.10;42.07;;;;;;;5.11;100.00;97835.38;5019826;28;20120;-86
2022/03/18 04:18:56;;;;;;;65.20;39.40;;;;;;;5.08;100.00;97834.69;5040739;28;20163;-85
2022/03/18 04:21:54;;;;;;;64.00;40.07;;;;;;;5.07;100.00;97840.84;5037292;28;20119;-85
2022/03/18 04:24:21;;;;;;;65.80;40.57;;;;;;;5.10;100.00;97846.75;5047986;28;20171;-86
2022/03/18 04:26:46;;;;;;;66.13;39.57;;;;;;;5.05;100.00;97846.13;5038431;28;20127;-86
2022/03/18 04:29:19;;;;;;;65.33;39.97;;;;;;;5.08;100.00;97853.78;5054836;28;20068;-86
2022/03/18 04:31:45;;;;;;;65.60;40.40;;;;;;;5.08;100.00;97855.56;5037144;28;20032;-86
2022/03/18 04:34:29;;;;;;;66.77;40.90;;;;;;;5.01;100.00;97854.22;5056669;28;20090;-86
2022/03/18 04:36:55;;;;;;;73.33;41.43;;;;;;;5.02;100.00;97861.13;5037231;28;20041;-86
2022/03/18 04:39:24;;;;;;;64.53;39.07;;;;;;;5.04;100.00;97856.66;5043678;28;20036;-86
2022/03/18 04:41:50;;;;;;;69.67;40.03;;;;;;;5.01;100.00;97865.50;5074714;28;20402;-86
2022/03/18 04:44:19;;;;;;;65.10;39.60;;;;;;;5.01;100.00;97862.03;5031724;28;20892;-86
2022/03/18 04:46:48;;;;;;;60.77;39.37;;;;;;;5.02;100.00;97861.13;5046899;28;20040;-86
2022/03/18 04:49:16;;;;;;;64.30;38.40;;;;;;;5.04;100.00;97865.31;5043717;28;20029;-86
2022/03/18 04:51:42;;;;;;;68.13;39.93;;;;;;;5.00;100.00;97873.38;5055102;28;20123;-86
2022/03/18 04:54:08;;;;;;;63.13;40.43;;;;;;;4.91;100.00;97887.78;5035216;28;20116;-86
2022/03/18 04:59:22;;;;;;;63.60;41.13;;;;;;;4.95;100.00;97881.47;5058291;28;20032;-85
2022/03/18 05:01:50;;;;;;;65.37;38.70;;;;;;;4.93;100.00;97892.00;5046587;28;20141;-86
2022/03/18 05:04:18;;;;;;;64.87;39.30;;;;;;;4.96;100.00;97877.94;5035131;28;20108;-86
2022/03/18 05:06:47;;;;;;;63.83;38.83;;;;;;;4.98;100.00;97886.50;5047025;28;20039;-85
2022/03/18 05:09:16;;;;;;;66.23;40.30;;;;;;;4.96;100.00;97893.56;5053010;28;20012;-85
2022/03/18 05:11:45;;;;;;;62.17;39.10;;;;;;;4.95;100.00;97899.72;5048926;28;20078;-86
2022/03/18 05:14:11;;;;;;;65.60;39.50;;;;;;;4.97;100.00;97903.94;5034362;28;20021;-86
2022/03/18 05:16:37;;;;;;;67.20;41.13;;;;;;;4.97;100.00;97906.53;5068828;28;20032;-86
2022/03/18 05:19:05;;;;;;;62.70;38.03;;;;;;;4.95;100.00;97913.59;5041202;28;20036;-86
2022/03/18 05:21:39;;;;;;;60.67;38.17;;;;;;;5.01;100.00;97917.63;5037919;28;20025;-85
2022/03/18 05:24:06;;;;;;;65.37;38.60;;;;;;;4.97;100.00;97910.91;5042728;28;20086;-85
2022/03/18 05:26:40;;;;;;;61.97;37.97;;;;;;;4.96;100.00;97927.47;5050842;28;20083;-86
2022/03/18 05:29:09;;;;;;;47.58;27.45;;;;;;;4.99;100.00;97931.69;5042157;28;20036;-86
2022/03/18 05:31:37;;;;;;;58.97;37.43;;;;;;;5.02;100.00;97928.91;5028646;28;20095;-86
2022/03/18 05:34:07;;;;;;;62.00;36.80;;;;;;;4.98;100.00;97938.66;5007936;28;20132;-86
2022/03/18 05:36:35;;;;;;;65.43;38.20;;;;;;;4.98;100.00;97938.66;5020210;28;20090;-86
2022/03/18 05:39:02;;;;;;;60.50;35.97;;;;;;;4.95;100.00;97934.44;5031715;28;20043;-86
2022/03/18 05:41:28;;;;;;;57.63;37.30;;;;;;;4.99;100.00;97931.69;5012236;28;20025;-86
2022/03/18 05:43:57;;;;;;;64.63;36.70;;;;;;;5.01;100.00;97941.09;5042552;28;20111;-86
2022/03/18 05:46:29;;;;;;;60.43;38.70;;;;;;;5.01;100.00;97945.47;5033163;28;20048;-87
2022/03/18 05:49:00;;;;;;;54.40;35.03;;;;;;;5.03;100.00;97947.09;5032660;28;20049;-86
2022/03/18 05:51:28;;;;;;;56.77;37.50;;;;;;;4.97;100.00;97953.47;5022411;28;20109;-87
2022/03/18 05:53:54;;;;;;;59.70;36.37;;;;;;;4.92;100.00;97952.84;5027869;28;20033;-86
2022/03/18 05:59:11;;;;;;;59.80;37.20;;;;;;;4.97;100.00;97952.63;5048184;28;20029;-86
2022/03/18 06:01:41;;;;;;;59.90;37.87;;;;;;;5.00;100.00;97956.81;5003325;28;20666;-86
2022/03/18 06:04:10;;;;;;;57.10;35.47;;;;;;;4.94;100.00;97953.63;5005759;28;20034;-86
2022/03/18 06:06:53;;;;;;;57.57;34.47;;;;;;;4.95;100.00;97967.50;5029394;28;20032;-86
2022/03/18 06:12:13;;;;;;;59.17;35.77;;;;;;;5.11;100.00;97970.13;5037002;28;20041;-86
2022/03/18 06:14:39;;;;;;;61.90;38.17;;;;;;;5.05;100.00;97968.69;5028142;28;20037;-86
2022/03/18 06:17:05;;;;;;;62.17;37.93;;;;;;;5.05;100.00;97967.84;5014902;28;20025;-86
2022/03/18 06:19:32;;;;;;;54.50;34.40;;;;;;;5.11;100.00;97973.56;5011647;28;20506;-85
2022/03/18 06:21:59;;;;;;;61.10;39.13;;;;;;;5.11;100.00;97980.56;5006884;28;20041;-85
2022/03/18 06:24:25;;;;;;;58.77;37.30;;;;;;;4.96;100.00;97982.22;5027435;28;20029;-84
2022/03/18 06:26:52;;;;;;;63.33;37.83;;;;;;;4.99;100.00;97989.88;5039819;28;20033;-84
2022/03/18 06:29:19;;;;;;;51.57;33.50;;;;;;;5.02;100.00;97981.88;5034875;28;20032;-85
2022/03/18 06:31:45;;;;;;;61.70;37.40;;;;;;;5.03;100.00;97996.63;5022090;28;20037;-85
2022/03/18 06:34:11;;;;;;;67.40;39.37;;;;;;;5.01;100.00;97997.63;5026658;28;20033;-84
2022/03/18 06:36:39;;;;;;;56.77;36.83;;;;;;;5.03;100.00;97999.25;5041055;28;20029;-85
2022/03/18 06:39:06;;;;;;;58.70;36.00;;;;;;;5.05;100.00;98005.19;5032848;28;20028;-85
2022/03/18 06:41:32;;;;;;;54.43;34.33;;;;;;;5.02;100.00;98009.72;5047813;28;20584;-84
2022/03/18 06:43:58;;;;;;;58.80;36.10;;;;;;;5.03;100.00;98009.66;5045916;28;20024;-84
2022/03/18 06:46:24;;;;;;;53.90;35.43;;;;;;;5.05;100.00;98018.22;5066395;28;20103;-84
2022/03/18 06:48:50;;;;;;;53.87;34.60;;;;;;;5.11;100.00;98022.28;5031516;28;20044;-84
2022/03/18 06:51:16;;;;;;;57.00;35.67;;;;;;;5.11;100.00;98022.28;5037089;28;20052;-84
2022/03/18 06:53:43;;;;;;;58.07;35.90;;;;;;;5.08;100.00;98023.28;5041348;28;20060;-84
2022/03/18 06:56:12;;;;;;;53.97;33.73;;;;;;;5.08;100.00;98025.06;5037224;28;20024;-83
2022/03/18 06:58:40;;;;;;;55.03;33.93;;;;;;;5.08;100.00;98032.88;5022986;28;20039;-83
2022/03/18 07:01:05;;;;;;;53.47;34.00;;;;;;;5.20;100.00;98027.88;5029591;28;20082;-83
2022/03/18 07:03:31;;;;;;;53.47;34.60;;;;;;;5.20;100.00;98027.03;5024051;28;20021;-83
2022/03/18 07:05:57;;;;;;;55.30;33.53;;;;;;;5.19;100.00;98031.38;5045573;28;20037;-83
2022/03/18 07:08:24;;;;;;;53.17;35.07;;;;;;;5.31;100.00;98036.88;5031629;28;20052;-83
2022/03/18 07:10:50;;;;;;;53.40;34.63;;;;;;;5.25;100.00;98034.59;5045018;28;20033;-83
2022/03/18 07:13:16;;;;;;;51.70;33.90;;;;;;;5.29;100.00;98021.28;5055627;28;20787;-82
2022/03/18 07:15:42;;;;;;;52.77;32.43;;;;;;;5.35;100.00;98035.78;5038519;28;20035;-83
2022/03/18 07:18:08;;;;;;;50.80;32.03;;;;;;;5.36;100.00;98027.84;5035336;28;20032;-83
2022/03/18 07:20:36;;;;;;;52.23;32.67;;;;;;;5.42;100.00;98034.53;5045498;28;20079;-82
2022/03/18 07:23:11;;;;;;;51.87;32.63;;;;;;;5.40;100.00;98039.00;5055392;28;20127;-83
2022/03/18 07:25:47;;;;;;;54.63;31.67;;;;;;;5.40;100.00;98046.81;5055247;28;20028;-83
2022/03/18 07:28:14;;;;;;;61.30;44.97;;;;;;;5.43;100.00;98044.03;5036257;28;20540;-83
2022/03/18 07:30:53;;;;;;;49.63;30.73;;;;;;;5.41;100.00;98045.91;5026394;28;20109;-83
2022/03/18 07:33:18;;;;;;;48.00;30.90;;;;;;;5.36;100.00;98048.72;5052061;28;20746;-83
2022/03/18 07:35:44;;;;;;;47.43;31.20;;;;;;;5.38;100.00;98046.91;5025907;28;20063;-83
2022/03/18 07:38:10;;;;;;;49.53;29.57;;;;;;;5.40;100.00;98054.66;5027822;28;20044;-83
2022/03/18 07:40:36;;;;;;;51.77;30.97;;;;;;;5.39;100.00;98045.97;5053180;28;20024;-82
2022/03/18 07:43:17;;;;;;;46.90;30.23;;;;;;;5.43;100.00;98050.13;5035642;28;20024;-83
2022/03/18 07:45:43;;;;;;;47.30;31.83;;;;;;;5.43;100.00;98052.72;5051674;28;20036;-83
2022/03/18 07:48:09;;;;;;;48.87;31.00;;;;;;;5.51;100.00;98054.91;5014803;28;20394;-83
2022/03/18 07:50:41;;;;;;;49.80;30.60;;;;;;;5.59;100.00;98059.69;5058738;28;20548;-83
2022/03/18 07:53:09;;;;;;;45.93;28.93;;;;;;;5.60;100.00;98054.41;5035593;28;20118;-84
2022/03/18 07:55:36;;;;;;;45.57;29.17;;;;;;;5.62;100.00;98054.31;5056473;28;20037;-83
2022/03/18 07:58:02;;;;;;;46.90;29.87;;;;;;;5.56;100.00;98055.47;5052686;28;20083;-83
2022/03/18 08:00:28;;;;;;;42.73;29.63;;;;;;;5.73;100.00;98051.94;5037942;28;20025;-83
2022/03/18 08:02:54;;;;;;;45.00;28.40;;;;;;;5.66;100.00;98063.66;5026310;28;20494;-83
2022/03/18 08:05:21;;;;;;;43.20;28.83;;;;;;;5.61;100.00;98061.31;5054022;28;20470;-83
2022/03/18 08:07:47;;;;;;;50.07;30.90;;;;;;;5.67;100.00;98066.19;5034308;28;20677;-83
2022/03/18 08:10:14;;;;;;;44.00;30.13;;;;;;;5.74;100.00;98064.09;5039187;28;20098;-83
2022/03/18 08:12:42;;;;;;;47.80;30.20;;;;;;;5.80;100.00;98063.75;5036910;28;20486;-83
2022/03/18 08:15:13;;;;;;;46.07;29.07;;;;;;;5.76;100.00;98070.06;5020824;28;20399;-83
2022/03/18 08:17:40;;;;;;;44.07;29.70;;;;;;;5.73;100.00;98067.63;5039013;28;20800;-83
2022/03/18 08:20:08;;;;;;;49.20;29.60;;;;;;;5.85;100.00;98069.56;5054279;28;20094;-83
2022/03/18 08:22:35;;;;;;;47.60;30.37;;;;;;;5.80;100.00;98069.00;5046300;28;20032;-83
2022/03/18 08:25:01;;;;;;;42.73;28.70;;;;;;;5.83;100.00;98076.63;5054627;28;20032;-83
2022/03/18 08:27:26;;;;;;;62.97;38.20;;;;;;;5.99;100.00;98075.81;5046228;28;20035;-83
2022/03/18 08:29:57;;;;;;;43.20;29.07;;;;;;;6.10;100.00;98081.28;5026626;28;20025;-84
2022/03/18 08:32:28;;;;;;;46.63;30.00;;;;;;;6.11;100.00;98082.97;5032754;28;20061;-84
2022/03/18 08:34:58;;;;;;;44.67;31.00;;;;;;;6.14;100.00;98085.44;5038537;28;20032;-83
2022/03/18 08:40:44;;;;;;;44.63;30.93;;;;;;;6.32;100.00;98094.81;5053949;28;20028;-84
2022/03/18 08:43:10;;;;;;;45.63;30.43;;;;;;;6.34;100.00;98097.38;5003356;28;20044;-84
2022/03/18 08:45:36;;;;;;;44.30;28.77;;;;;;;6.37;100.00;98105.88;5040062;28;20036;-84
2022/03/18 08:48:06;;;;;;;45.63;28.53;;;;;;;6.37;100.00;98100.63;5029115;28;20036;-84
2022/03/18 08:50:33;;;;;;;40.30;28.93;;;;;;;6.40;100.00;98104.00;5032576;28;20033;-84
2022/03/18 08:52:58;;;;;;;39.23;28.53;;;;;;;6.31;100.00;98102.75;5032995;28;20016;-84
2022/03/18 08:55:26;;;;;;;41.43;28.17;;;;;;;6.34;100.00;98092.97;5038937;28;20028;-83
2022/03/18 08:57:52;;;;;;;44.40;30.07;;;;;;;6.45;100.00;98102.81;5039819;28;20079;-84
2022/03/18 09:00:29;;;;;;;45.37;28.03;;;;;;;6.35;100.00;98097.25;5052932;28;20487;-84
2022/03/18 09:02:55;;;;;;;39.83;26.53;;;;;;;6.48;100.00;98094.78;5045509;28;20032;-84
2022/03/18 09:05:21;;;;;;;44.23;28.00;;;;;;;6.69;100.00;98090.09;5046203;28;20047;-83
2022/03/18 09:07:48;;;;;;;42.33;28.40;;;;;;;6.73;100.00;98099.44;5051154;28;20033;-83
2022/03/18 09:10:14;;;;;;;41.13;27.17;;;;;;;6.86;100.00;98099.56;5022037;28;20092;-84
2022/03/18 09:12:58;;;;;;;44.17;29.83;;;;;;;6.92;100.00;98100.97;5032953;28;20396;-84
2022/03/18 09:15:25;;;;;;;39.40;27.30;;;;;;;6.94;100.00;98099.97;5036322;28;20090;-84
2022/03/18 09:17:51;;;;;;;41.97;28.53;;;;;;;6.99;100.00;98092.66;5049616;28;20415;-84
2022/03/18 09:20:18;;;;;;;40.73;26.03;;;;;;;7.04;100.00;98101.09;5049512;28;20109;-83
2022/03/18 09:22:44;;;;;;;43.50;27.13;;;;;;;7.07;100.00;98110.50;5030320;28;20514;-84
2022/03/18 09:25:09;;;;;;;40.37;27.87;;;;;;;7.18;100.00;98113.34;5055646;28;20041;-84
2022/03/18 09:27:36;;;;;;;41.27;27.83;;;;;;;7.18;100.00;98110.75;5016147;28;20124;-83
2022/03/18 09:30:03;;;;;;;38.57;25.07;;;;;;;6.98;100.00;98122.38;5013785;28;20033;-84
2022/03/18 09:32:29;;;;;;;42.17;27.37;;;;;;;7.08;100.00;98123.53;5014408;28;20037;-83
2022/03/18 09:34:56;;;;;;;42.73;29.43;;;;;;;7.17;100.00;98122.13;5019446;28;20060;-84
2022/03/18 09:37:22;;;;;;;39.57;26.73;;;;;;;7.05;100.00;98122.88;5016222;28;20029;-84
2022/03/18 09:39:48;;;;;;;37.90;25.93;;;;;;;7.25;100.00;98114.66;5015456;28;20052;-84
2022/03/18 09:42:15;;;;;;;39.63;27.73;;;;;;;7.82;100.00;98120.81;5038232;28;20024;-83
2022/03/18 09:44:41;;;;;;;43.07;27.67;;;;;;;7.84;100.00;98129.41;5016965;28;20029;-83
2022/03/18 09:47:09;;;;;;;40.30;26.80;;;;;;;7.66;100.00;98134.03;5016501;28;20036;-83
2022/03/18 09:49:36;;;;;;;35.17;24.83;;;;;;;7.56;100.00;98138.97;5018631;28;20468;-84
2022/03/18 09:52:19;;;;;;;37.60;26.57;;;;;;;7.59;100.00;98143.19;5008092;28;20038;-83
2022/03/18 09:54:45;;;;;;;42.97;28.52;;;;;;;7.60;100.00;98145.69;5036135;28;20037;-83
2022/03/18 09:57:12;;;;;;;40.23;26.60;;;;;;;7.43;100.00;98146.72;5019486;28;20099;-84
2022/03/18 09:59:39;;;;;;;37.87;26.77;;;;;;;7.61;100.00;98152.63;5019392;28;20706;-84
2022/03/18 10:02:40;;;;;;;37.43;26.73;;;;;;;7.49;100.00;98145.53;5050036;28;20074;-83
2022/03/18 10:05:21;;;;;;;38.20;25.50;;;;;;;8.03;100.00;98143.88;4932443;29;20032;-83
2022/03/18 10:07:54;;;;;;;38.70;25.87;;;;;;;7.96;100.00;98147.00;5007495;28;20515;-83
2022/03/18 10:10:23;;;;;;;37.17;25.33;;;;;;;8.59;100.00;98143.84;5020650;28;20087;-83
2022/03/18 10:12:50;;;;;;;34.63;25.63;;;;;;;8.56;100.00;98146.69;5031926;28;20124;-83
2022/03/18 10:15:22;;;;;;;33.43;24.83;;;;;;;8.35;100.00;98150.63;5011099;28;20034;-82
2022/03/18 10:17:52;;;;;;;34.90;26.07;;;;;;;8.68;100.00;98153.72;5018226;28;20081;-83
2022/03/18 10:20:45;;;;;;;35.13;25.30;;;;;;;8.91;98.04;98154.84;5044493;28;20036;-83
2022/03/18 10:23:23;;;;;;;37.17;25.95;;;;;;;8.67;98.81;98153.84;5014870;28;20112;-82
2022/03/18 10:25:50;;;;;;;35.87;24.87;;;;;;;8.10;98.88;98144.34;5034771;28;20052;-83
2022/03/18 10:28:37;;;;;;;34.83;24.50;;;;;;;8.14;99.26;98153.69;5012468;28;20059;-82
2022/03/18 10:31:30;;;;;;;35.57;24.73;;;;;;;8.22;99.55;98156.69;5021807;28;20492;-83
2022/03/18 10:39:40;;;;;;;39.13;25.70;;;;;;;9.45;92.86;98141.56;5029053;28;20502;-83
2022/03/18 10:42:10;;;;;;;35.83;24.67;;;;;;;9.24;91.06;98147.44;5048874;28;20044;-82
2022/03/18 10:44:45;;;;;;;36.37;24.97;;;;;;;9.35;90.95;98148.38;5008302;28;20053;-82
2022/03/18 10:47:39;;;;;;;36.27;26.17;;;;;;;9.33;90.02;98150.28;5005829;28;20036;-83
2022/03/18 10:50:24;;;;;;;38.53;26.00;;;;;;;9.92;87.58;98144.44;5005500;28;20032;-83
2022/03/18 10:52:50;;;;;;;32.23;23.83;;;;;;;10.01;86.31;98140.34;5006609;28;20110;-83
2022/03/18 10:55:18;;;;;;;33.30;24.57;;;;;;;10.12;86.71;98128.09;5030854;28;20468;-83
2022/03/18 10:57:51;;;;;;;34.23;24.60;;;;;;;10.22;81.70;98132.69;5043354;28;20112;-83
2022/03/18 11:00:18;;;;;;;;;;;;;;;10.42;81.45;98139.19;5032115;28;20036;-83
2022/03/18 11:02:47;;;;;;;31.40;23.47;;;;;;;10.68;80.91;98143.38;5021973;28;19912;-83
2022/03/18 11:05:37;;;;;;;35.63;24.93;;;;;;;10.77;79.28;98131.34;4999975;28;20052;-83
2022/03/18 11:08:05;;;;;;;40.50;25.23;;;;;;;10.69;78.72;98131.06;5018559;28;20108;-83
2022/03/18 11:13:21;;;;;;;35.03;24.90;;;;;;;11.13;75.55;98138.25;5032314;28;20041;-83
2022/03/18 11:16:26;;;;;;;33.87;24.00;;;;;;;10.60;78.00;98135.22;5011061;28;20124;-83
2022/03/18 11:18:52;;;;;;;34.10;24.57;;;;;;;11.08;76.87;98130.72;5012387;28;20037;-83
2022/03/18 11:21:21;;;;;;;35.30;24.30;;;;;;;11.09;78.01;98132.38;5007110;28;20028;-83
2022/03/18 11:23:54;;;;;;;35.47;23.37;;;;;;;11.77;74.61;98137.78;5012094;28;20051;-83
2022/03/18 11:26:19;;;;;;;34.05;23.55;;;;;;;11.18;74.57;98137.94;5027515;28;20072;-83
2022/03/18 11:28:45;;;;;;;34.80;24.27;;;;;;;11.36;76.80;98141.78;5013501;28;20114;-83
2022/03/18 11:31:19;;;;;;;30.23;22.23;;;;;;;12.12;74.01;98135.00;5035028;28;20770;-83
2022/03/18 11:34:03;;;;;;;;;;;;;;;11.74;72.42;98136.22;5030648;28;20032;-82
2022/03/18 11:36:29;;;;;;;;;;;;;;;11.46;74.33;98140.13;5012966;28;19917;-83
2022/03/18 11:38:59;;;;;;;37.70;22.27;;;;;;;11.42;75.00;98149.22;5030650;28;19913;-83
2022/03/18 11:41:27;;;;;;;34.97;23.17;;;;;;;11.01;76.46;98145.31;5009926;28;20033;-82
2022/03/18 11:43:56;;;;;;;33.17;23.07;;;;;;;11.31;74.30;98139.50;5019071;28;20029;-84
2022/03/18 11:46:25;;;;;;;32.13;22.97;;;;;;;10.97;76.59;98143.88;5012318;28;20025;-83
2022/03/18 11:48:55;;;;;;;32.00;22.20;;;;;;;10.92;76.74;98140.72;5025402;28;20041;-83
2022/03/18 11:51:31;;;;;;;34.53;22.50;;;;;;;11.46;74.86;98129.59;5031141;28;20055;-83
2022/03/18 11:54:20;;;;;;;33.97;24.07;;;;;;;10.98;75.03;98140.25;5014675;28;20189;-83
2022/03/18 11:56:57;;;;;;;29.40;22.37;;;;;;;11.18;72.74;98130.03;5022783;28;20480;-83